createdAt,value
2023-05-14T00:00:10.345Z,15.00
2023-05-14T00:05:12.462Z,15.00
2023-05-14T00:10:14.330Z,14.90
2023-05-14T00:15:16.367Z,14.90
2023-05-14T00:20:22.776Z,14.90
2023-05-14T00:25:24.958Z,14.90
2023-05-14T00:30:27.253Z,14.90
2023-05-14T00:35:29.604Z,14.90
2023-05-14T00:40:33.060Z,14.80
2023-05-14T00:45:34.863Z,14.80
2023-05-14T00:50:39.499Z,14.70
2023-05-14T00:55:42.662Z,14.60
2023-05-14T01:00:44.522Z,14.60
2023-05-14T01:06:16.212Z,14.60
2023-05-14T01:11:24.838Z,14.60
2023-05-14T01:16:29.486Z,14.60
2023-05-14T01:21:38.767Z,14.70
2023-05-14T01:26:40.980Z,14.70
2023-05-14T01:31:45.741Z,14.60
2023-05-14T01:36:48.208Z,14.60
2023-05-14T01:41:51.412Z,14.50
2023-05-14T01:46:53.231Z,14.50
2023-05-14T01:51:55.169Z,14.50
2023-05-14T01:56:56.959Z,14.50
2023-05-14T02:01:58.872Z,14.50
2023-05-14T02:07:00.793Z,14.50
2023-05-14T02:12:03.659Z,14.50
2023-05-14T02:17:06.991Z,14.40
2023-05-14T02:22:08.819Z,14.40
2023-05-14T02:27:13.655Z,14.40
2023-05-14T02:32:15.569Z,14.40
2023-05-14T02:37:17.364Z,14.40
2023-05-14T02:42:20.605Z,14.40
2023-05-14T02:47:22.493Z,14.40
2023-05-14T02:52:24.354Z,14.40
2023-05-14T02:57:26.866Z,14.30
2023-05-14T03:02:29.208Z,14.20
2023-05-14T03:07:33.406Z,14.10
2023-05-14T03:12:35.477Z,14.10
2023-05-14T03:17:37.365Z,14.00
2023-05-14T03:22:39.900Z,14.00
2023-05-14T03:27:41.709Z,13.90
2023-05-14T03:32:44.743Z,13.90
2023-05-14T03:37:46.696Z,13.80
2023-05-14T03:42:48.505Z,13.80
2023-05-14T03:47:51.734Z,13.80
2023-05-14T03:52:53.755Z,13.70
2023-05-14T03:57:56.633Z,13.80
2023-05-14T04:02:58.530Z,13.80
2023-05-14T04:08:00.887Z,13.80
2023-05-14T04:13:03.767Z,13.80
2023-05-14T04:18:06.191Z,13.90
2023-05-14T04:23:07.977Z,13.90
2023-05-14T04:28:12.009Z,14.00
2023-05-14T04:33:13.870Z,14.00
2023-05-14T04:38:15.702Z,14.20
2023-05-14T04:43:17.680Z,14.00
2023-05-14T04:48:21.079Z,14.00
2023-05-14T04:53:23.457Z,14.20
2023-05-14T04:58:27.687Z,14.40
2023-05-14T05:03:29.622Z,14.60
2023-05-14T05:08:32.668Z,14.60
2023-05-14T05:13:34.572Z,14.60
2023-05-14T05:18:36.733Z,14.60
2023-05-14T05:23:39.319Z,14.80
2023-05-14T05:28:41.164Z,14.90
2023-05-14T05:33:48.028Z,14.80
2023-05-14T05:38:50.966Z,15.00
2023-05-14T05:43:55.948Z,15.20
2023-05-14T05:48:58.293Z,15.20
2023-05-14T05:54:00.224Z,14.80
2023-05-14T05:59:02.077Z,14.80
2023-05-14T06:04:06.465Z,14.80
2023-05-14T06:09:09.440Z,15.00
2023-05-14T06:14:11.268Z,15.20
2023-05-14T06:19:13.293Z,15.30
2023-05-14T06:24:17.566Z,15.40
2023-05-14T06:29:19.433Z,15.50
2023-05-14T06:34:22.968Z,15.60
2023-05-14T06:39:24.809Z,15.70
2023-05-14T06:44:31.590Z,15.70
2023-05-14T06:49:34.601Z,15.80
2023-05-14T06:54:38.788Z,15.70
2023-05-14T06:59:40.642Z,15.80
2023-05-14T07:04:42.459Z,16.00
2023-05-14T07:09:44.942Z,15.80
2023-05-14T07:14:47.860Z,15.90
2023-05-14T07:19:49.829Z,16.10
2023-05-14T07:24:52.767Z,16.30
2023-05-14T07:29:54.613Z,16.40
2023-05-14T07:34:57.599Z,16.40
2023-05-14T07:40:01.336Z,16.50
2023-05-14T07:45:04.130Z,16.70
2023-05-14T07:50:06.791Z,16.80
2023-05-14T07:55:09.690Z,16.60
2023-05-14T08:00:12.379Z,16.70
2023-05-14T08:05:14.308Z,17.00
2023-05-14T08:10:16.115Z,16.90
2023-05-14T08:15:18.388Z,17.00
2023-05-14T08:20:25.424Z,17.10
2023-05-14T08:25:27.510Z,17.40
2023-05-14T08:30:29.478Z,17.40
2023-05-14T08:35:32.112Z,17.50
2023-05-14T08:40:34.745Z,17.50
2023-05-14T08:45:38.345Z,17.60
2023-05-14T08:50:42.080Z,17.90
2023-05-14T08:55:45.811Z,17.80
2023-05-14T09:00:48.028Z,18.00
2023-05-14T09:05:53.895Z,18.40
2023-05-14T09:10:56.121Z,18.40
2023-05-14T09:15:59.256Z,18.20
2023-05-14T09:21:01.967Z,18.40
2023-05-14T09:26:07.697Z,18.50
2023-05-14T09:31:12.678Z,18.50
2023-05-14T09:36:14.627Z,19.10
2023-05-14T09:41:16.728Z,19.20
2023-05-14T09:46:20.189Z,19.60
2023-05-14T09:51:22.173Z,19.50
2023-05-14T09:56:24.459Z,20.10
2023-05-14T10:01:28.564Z,20.10
2023-05-14T10:06:33.724Z,20.40
2023-05-14T10:11:38.764Z,20.60
2023-05-14T10:16:46.192Z,20.50
2023-05-14T10:21:59.857Z,20.60
2023-05-14T10:27:02.131Z,21.00
2023-05-14T10:32:09.690Z,21.00
2023-05-14T10:37:23.170Z,21.00
2023-05-14T10:42:33.240Z,21.20
2023-05-14T10:47:43.186Z,21.90
2023-05-14T10:52:45.892Z,22.30
2023-05-14T10:57:49.198Z,21.50
2023-05-14T11:02:59.174Z,21.90
2023-05-14T11:08:07.865Z,21.30
2023-05-14T11:13:12.070Z,21.00
2023-05-14T11:18:14.946Z,22.00
2023-05-14T11:23:17.335Z,21.90
2023-05-14T11:28:22.610Z,21.70
2023-05-14T11:33:24.514Z,21.90
2023-05-14T11:38:27.520Z,21.80
2023-05-14T11:43:30.827Z,22.10
2023-05-14T11:48:35.488Z,21.60
2023-05-14T11:53:38.838Z,21.40
2023-05-14T11:58:47.580Z,21.40
2023-05-14T12:03:50.988Z,21.70
2023-05-14T12:08:57.982Z,21.60
2023-05-14T12:14:00.167Z,21.30
2023-05-14T12:19:02.617Z,21.30
2023-05-14T12:24:04.956Z,21.70
2023-05-14T12:29:07.029Z,21.10
2023-05-14T12:34:08.752Z,20.70
2023-05-14T12:39:12.750Z,20.70
2023-05-14T12:44:14.585Z,20.60
2023-05-14T12:49:16.746Z,20.90
2023-05-14T12:54:19.556Z,20.60
2023-05-14T12:59:23.753Z,20.70
2023-05-14T13:04:28.147Z,20.90
2023-05-14T13:09:31.724Z,20.90
2023-05-14T13:14:36.176Z,20.90
2023-05-14T13:19:40.465Z,20.50
2023-05-14T13:24:42.216Z,20.90
2023-05-14T13:29:43.922Z,21.30
2023-05-14T13:34:45.740Z,21.50
2023-05-14T13:39:48.768Z,21.40
2023-05-14T13:44:52.941Z,21.30
2023-05-14T13:49:55.708Z,21.40
2023-05-14T13:54:58.621Z,21.00
2023-05-14T14:00:00.760Z,20.80
2023-05-14T14:05:02.833Z,21.00
2023-05-14T14:10:05.395Z,21.10
2023-05-14T14:15:09.588Z,21.00
2023-05-14T14:20:12.111Z,21.20
2023-05-14T14:25:15.182Z,21.60
2023-05-14T14:30:17.412Z,22.20
2023-05-14T14:35:20.364Z,21.60
2023-05-14T14:40:24.043Z,21.40
2023-05-14T14:45:26.001Z,21.60
2023-05-14T14:50:29.677Z,21.80
2023-05-14T14:55:32.828Z,22.20
2023-05-14T15:00:34.700Z,21.80
2023-05-14T15:05:36.496Z,22.10
2023-05-14T15:10:38.537Z,22.20
2023-05-14T15:15:40.296Z,22.00
2023-05-14T15:20:44.140Z,21.90
2023-05-14T15:25:45.868Z,21.70
2023-05-14T15:30:48.431Z,22.20
2023-05-14T15:35:51.677Z,22.40
2023-05-14T15:40:53.408Z,22.50
2023-05-14T15:45:55.177Z,22.20
2023-05-14T15:50:57.083Z,22.30
2023-05-14T15:56:02.635Z,22.60
2023-05-14T16:01:04.899Z,22.20
2023-05-14T16:06:07.088Z,21.60
2023-05-14T16:11:09.113Z,21.40
2023-05-14T16:16:10.900Z,21.20
2023-05-14T16:21:13.949Z,21.10
2023-05-14T16:26:16.906Z,20.90
2023-05-14T16:31:20.994Z,21.70
2023-05-14T16:36:25.072Z,22.10
2023-05-14T16:41:26.995Z,21.70
2023-05-14T16:46:30.662Z,21.70
2023-05-14T16:51:34.822Z,21.70
2023-05-14T16:56:36.933Z,21.70
2023-05-14T17:01:40.714Z,21.40
2023-05-14T17:06:43.769Z,21.20
2023-05-14T17:11:46.673Z,21.00
2023-05-14T17:16:49.621Z,20.90
2023-05-14T17:21:51.307Z,20.80
2023-05-14T17:26:53.182Z,20.70
2023-05-14T17:31:56.043Z,20.60
2023-05-14T17:36:57.916Z,20.60
2023-05-14T17:41:59.658Z,20.00
2023-05-14T17:47:03.032Z,20.10
2023-05-14T17:52:07.085Z,20.10
2023-05-14T17:57:09.070Z,19.90
2023-05-14T18:02:11.468Z,19.80
2023-05-14T18:07:13.433Z,19.60
2023-05-14T18:12:15.559Z,19.40
2023-05-14T18:17:18.450Z,19.10
2023-05-14T18:22:21.573Z,19.00
2023-05-14T18:27:25.960Z,19.00
2023-05-14T18:32:28.914Z,18.90
2023-05-14T18:37:30.770Z,18.80
2023-05-14T18:42:33.452Z,18.60
2023-05-14T18:47:35.500Z,18.50
2023-05-14T18:52:37.505Z,18.40
2023-05-14T18:57:39.872Z,18.30
2023-05-14T19:02:41.765Z,18.10
2023-05-14T19:07:43.878Z,17.90
2023-05-14T19:12:47.514Z,17.80
2023-05-14T19:17:49.837Z,17.70
2023-05-14T19:22:51.826Z,17.60
2023-05-14T19:27:55.303Z,17.60
2023-05-14T19:32:59.669Z,17.60
2023-05-14T19:38:01.602Z,17.60
2023-05-14T19:43:03.583Z,17.50
2023-05-14T19:48:06.715Z,17.50
2023-05-14T19:53:08.843Z,17.50
2023-05-14T19:58:13.691Z,17.40
2023-05-14T20:03:17.207Z,17.30
2023-05-14T20:08:20.768Z,17.20
2023-05-14T20:13:25.046Z,17.10
2023-05-14T20:18:27.413Z,17.00
2023-05-14T20:23:29.382Z,16.70
2023-05-14T20:28:31.956Z,16.60
2023-05-14T20:33:35.273Z,16.50
2023-05-14T20:38:38.940Z,16.50
2023-05-14T20:43:40.856Z,16.30
2023-05-14T20:48:42.711Z,16.20
2023-05-14T20:53:44.536Z,16.00
2023-05-14T20:58:46.437Z,15.90
2023-05-14T21:03:48.412Z,15.90
2023-05-14T21:08:52.290Z,15.70
2023-05-14T21:13:54.349Z,15.60
2023-05-14T21:18:57.418Z,15.40
2023-05-14T21:23:59.257Z,15.30
2023-05-14T21:29:02.245Z,15.20
2023-05-14T21:34:05.159Z,15.00
2023-05-14T21:39:07.101Z,14.90
2023-05-14T21:44:08.942Z,14.60
2023-05-14T21:49:12.125Z,14.60
2023-05-14T21:54:14.456Z,14.60
2023-05-14T21:59:18.284Z,14.60
2023-05-14T22:04:20.647Z,14.50
2023-05-14T22:09:22.624Z,14.40
2023-05-14T22:14:26.469Z,14.40
2023-05-14T22:19:30.681Z,14.40
2023-05-14T22:24:32.890Z,14.40
2023-05-14T22:29:36.177Z,14.30
2023-05-14T22:34:39.532Z,14.30
2023-05-14T22:39:41.722Z,14.20
2023-05-14T22:44:43.557Z,14.10
2023-05-14T22:49:45.452Z,14.10
2023-05-14T22:54:49.513Z,14.00
2023-05-14T22:59:52.892Z,13.90
2023-05-14T23:04:57.828Z,13.80
2023-05-14T23:09:59.660Z,13.70
2023-05-14T23:15:03.149Z,13.70
2023-05-14T23:20:06.024Z,13.60
2023-05-14T23:25:08.375Z,13.50
2023-05-14T23:30:10.820Z,13.40
2023-05-14T23:35:12.648Z,13.30
2023-05-14T23:40:15.632Z,13.10
2023-05-14T23:45:18.270Z,13.10
2023-05-14T23:50:20.094Z,13.00
2023-05-14T23:55:23.290Z,13.00
